sensor_id;sensor_type;location;lat;lon;timestamp;pressure;altitude;pressure_sealevel;temperature;humidity
8637;BME280;4356;49.068;8.658;2023-03-13T00:00:14;99343.97;;;16.06;38.24
8637;BME280;4356;49.068;8.658;2023-03-13T00:02:41;99345.38;;;16.09;38.09
8637;BME280;4356;49.068;8.658;2023-03-13T00:05:10;99354.53;;;16.14;38.14
8637;BME280;4356;49.068;8.658;2023-03-13T00:07:36;99347.44;;;16.13;38.22
8637;BME280;4356;49.068;8.658;2023-03-13T00:10:02;99342.25;;;16.12;38.48
8637;BME280;4356;49.068;8.658;2023-03-13T00:12:28;99348.28;;;16.14;38.00
8637;BME280;4356;49.068;8.658;2023-03-13T00:14:53;99335.16;;;16.11;38.13
8637;BME280;4356;49.068;8.658;2023-03-13T00:17:19;99346.19;;;16.16;38.09
8637;BME280;4356;49.068;8.658;2023-03-13T00:19:44;99338.25;;;16.14;37.95
8637;BME280;4356;49.068;8.658;2023-03-13T00:22:10;99338.25;;;16.14;38.09
8637;BME280;4356;49.068;8.658;2023-03-13T00:24:36;99331.81;;;16.15;38.08
8637;BME280;4356;49.068;8.658;2023-03-13T00:27:02;99332.41;;;16.17;38.29
8637;BME280;4356;49.068;8.658;2023-03-13T00:29:31;99292.88;;;16.03;38.21
8637;BME280;4356;49.068;8.658;2023-03-13T00:31:57;99317.19;;;16.16;38.37
8637;BME280;4356;49.068;8.658;2023-03-13T00:34:23;99306.78;;;16.13;38.42
8637;BME280;4356;49.068;8.658;2023-03-13T00:36:52;99306.13;;;16.18;38.23
8637;BME280;4356;49.068;8.658;2023-03-13T00:39:19;99298.22;;;16.16;38.29
8637;BME280;4356;49.068;8.658;2023-03-13T00:41:45;99284.34;;;16.06;38.32
8637;BME280;4356;49.068;8.658;2023-03-13T00:44:11;99289.47;;;16.14;38.20
8637;BME280;4356;49.068;8.658;2023-03-13T00:46:36;99288.44;;;16.15;38.19
8637;BME280;4356;49.068;8.658;2023-03-13T00:49:03;99281.53;;;16.19;38.33
8637;BME280;4356;49.068;8.658;2023-03-13T00:51:29;99283.63;;;16.17;38.29
8637;BME280;4356;49.068;8.658;2023-03-13T00:53:56;99281.53;;;16.19;38.24
8637;BME280;4356;49.068;8.658;2023-03-13T00:56:25;99268.16;;;16.18;38.12
8637;BME280;4356;49.068;8.658;2023-03-13T00:58:50;99264.03;;;16.15;37.82
8637;BME280;4356;49.068;8.658;2023-03-13T01:01:27;99265.44;;;16.18;38.05
8637;BME280;4356;49.068;8.658;2023-03-13T01:03:56;99267.34;;;16.17;37.98
8637;BME280;4356;49.068;8.658;2023-03-13T01:06:25;99257.78;;;16.15;38.10
8637;BME280;4356;49.068;8.658;2023-03-13T01:08:51;99252.34;;;16.15;37.57
8637;BME280;4356;49.068;8.658;2023-03-13T01:11:23;99261.09;;;16.17;37.88
8637;BME280;4356;49.068;8.658;2023-03-13T01:13:55;99255.44;;;16.18;38.24
8637;BME280;4356;49.068;8.658;2023-03-13T01:16:22;99249.19;;;16.18;38.04
8637;BME280;4356;49.068;8.658;2023-03-13T01:18:50;99229.06;;;16.07;38.08
8637;BME280;4356;49.068;8.658;2023-03-13T01:21:17;99224.72;;;16.06;37.87
8637;BME280;4356;49.068;8.658;2023-03-13T01:23:44;99229.84;;;16.14;38.30
8637;BME280;4356;49.068;8.658;2023-03-13T01:26:10;99236.94;;;16.15;38.29
8637;BME280;4356;49.068;8.658;2023-03-13T01:28:36;99220.66;;;16.15;38.57
8637;BME280;4356;49.068;8.658;2023-03-13T01:31:26;99223.75;;;16.19;38.25
8637;BME280;4356;49.068;8.658;2023-03-13T01:33:57;99217.94;;;16.15;38.27
8637;BME280;4356;49.068;8.658;2023-03-13T01:36:23;99222.91;;;16.18;38.04
8637;BME280;4356;49.068;8.658;2023-03-13T01:38:51;99217.50;;;16.18;37.93
8637;BME280;4356;49.068;8.658;2023-03-13T01:41:18;99204.78;;;16.19;38.28
8637;BME280;4356;49.068;8.658;2023-03-13T01:43:44;99182.38;;;16.05;38.28
8637;BME280;4356;49.068;8.658;2023-03-13T01:46:13;99194.78;;;16.19;38.28
8637;BME280;4356;49.068;8.658;2023-03-13T01:48:54;99192.06;;;16.19;38.61
8637;BME280;4356;49.068;8.658;2023-03-13T01:51:43;99193.09;;;16.18;38.25
8637;BME280;4356;49.068;8.658;2023-03-13T01:59:21;99177.91;;;16.17;37.99
8637;BME280;4356;49.068;8.658;2023-03-13T02:01:50;99174.97;;;16.19;38.64
8637;BME280;4356;49.068;8.658;2023-03-13T02:04:18;99178.94;;;16.16;38.35
8637;BME280;4356;49.068;8.658;2023-03-13T02:06:49;99168.09;;;16.16;38.34
8637;BME280;4356;49.068;8.658;2023-03-13T02:09:19;99172.25;;;16.19;37.97
8637;BME280;4356;49.068;8.658;2023-03-13T02:12:06;99163.97;;;16.14;38.04
8637;BME280;4356;49.068;8.658;2023-03-13T02:14:36;99160.56;;;16.18;37.93
8637;BME280;4356;49.068;8.658;2023-03-13T02:17:04;99161.41;;;16.19;38.29
8637;BME280;4356;49.068;8.658;2023-03-13T02:19:46;99156.81;;;16.19;38.73
8637;BME280;4356;49.068;8.658;2023-03-13T02:27:43;99141.44;;;16.13;37.95
8637;BME280;4356;49.068;8.658;2023-03-13T02:30:11;99145.59;;;16.16;38.28
8637;BME280;4356;49.068;8.658;2023-03-13T02:32:38;99118.88;;;16.01;39.11
8637;BME280;4356;49.068;8.658;2023-03-13T02:35:14;99134.53;;;16.17;39.15
8637;BME280;4356;49.068;8.658;2023-03-13T02:37:41;99131.22;;;16.15;39.03
8637;BME280;4356;49.068;8.658;2023-03-13T02:40:11;99117.06;;;16.13;38.74
8637;BME280;4356;49.068;8.658;2023-03-13T02:42:41;99111.19;;;16.16;38.55
8637;BME280;4356;49.068;8.658;2023-03-13T02:45:08;99112.47;;;16.14;38.59
8637;BME280;4356;49.068;8.658;2023-03-13T02:47:35;99107.66;;;16.16;38.90
8637;BME280;4356;49.068;8.658;2023-03-13T02:50:00;99084.00;;;16.05;39.18
8637;BME280;4356;49.068;8.658;2023-03-13T02:52:32;99099.28;;;16.17;39.01
8637;BME280;4356;49.068;8.658;2023-03-13T02:55:06;99091.16;;;16.17;38.79
8637;BME280;4356;49.068;8.658;2023-03-13T02:57:33;99097.63;;;16.16;38.84
8637;BME280;4356;49.068;8.658;2023-03-13T03:00:00;99063.59;;;16.02;38.70
8637;BME280;4356;49.068;8.658;2023-03-13T03:02:26;99085.97;;;16.16;38.85
8637;BME280;4356;49.068;8.658;2023-03-13T03:04:51;99088.22;;;16.19;39.09
8637;BME280;4356;49.068;8.658;2023-03-13T03:07:17;99089.25;;;16.18;38.57
8637;BME280;4356;49.068;8.658;2023-03-13T03:09:43;99091.78;;;16.19;38.67
8637;BME280;4356;49.068;8.658;2023-03-13T03:12:09;99080.31;;;16.17;38.72
8637;BME280;4356;49.068;8.658;2023-03-13T03:14:34;99080.56;;;16.16;39.09
8637;BME280;4356;49.068;8.658;2023-03-13T03:17:00;99051.50;;;16.05;38.86
8637;BME280;4356;49.068;8.658;2023-03-13T03:19:26;99068.41;;;16.18;38.72
8637;BME280;4356;49.068;8.658;2023-03-13T03:21:52;99067.00;;;16.16;38.47
8637;BME280;4356;49.068;8.658;2023-03-13T03:24:18;99055.97;;;16.11;38.80
8637;BME280;4356;49.068;8.658;2023-03-13T03:26:43;99063.81;;;16.19;38.85
8637;BME280;4356;49.068;8.658;2023-03-13T03:29:09;99058.03;;;16.15;38.47
8637;BME280;4356;49.068;8.658;2023-03-13T03:31:35;99068.66;;;16.17;38.53
8637;BME280;4356;49.068;8.658;2023-03-13T03:34:01;99066.78;;;16.17;38.80
8637;BME280;4356;49.068;8.658;2023-03-13T03:36:28;99065.94;;;16.17;39.02
8637;BME280;4356;49.068;8.658;2023-03-13T03:38:53;99076.53;;;16.18;39.05
8637;BME280;4356;49.068;8.658;2023-03-13T03:41:19;99053.06;;;16.12;39.04
8637;BME280;4356;49.068;8.658;2023-03-13T03:43:45;99067.81;;;16.16;38.74
8637;BME280;4356;49.068;8.658;2023-03-13T03:46:12;99036.03;;;16.05;38.78
8637;BME280;4356;49.068;8.658;2023-03-13T03:48:38;99041.09;;;16.02;39.20
8637;BME280;4356;49.068;8.658;2023-03-13T03:51:04;99052.28;;;16.05;38.75
8637;BME280;4356;49.068;8.658;2023-03-13T03:53:30;99047.72;;;16.06;38.75
8637;BME280;4356;49.068;8.658;2023-03-13T03:55:57;99064.06;;;16.17;39.31
8637;BME280;4356;49.068;8.658;2023-03-13T03:58:23;99039.44;;;16.01;39.11
8637;BME280;4356;49.068;8.658;2023-03-13T04:00:48;99044.53;;;16.09;39.06
8637;BME280;4356;49.068;8.658;2023-03-13T04:03:14;99051.78;;;16.15;39.21
8637;BME280;4356;49.068;8.658;2023-03-13T04:05:41;99043.41;;;16.16;39.45
8637;BME280;4356;49.068;8.658;2023-03-13T04:08:08;99044.00;;;16.18;39.90
8637;BME280;4356;49.068;8.658;2023-03-13T04:10:34;99043.19;;;16.18;39.50
8637;BME280;4356;49.068;8.658;2023-03-13T04:13:00;99039.44;;;16.19;39.27
8637;BME280;4356;49.068;8.658;2023-03-13T04:15:25;99015.78;;;16.08;38.59
8637;BME280;4356;49.068;8.658;2023-03-13T04:17:51;99027.53;;;16.20;38.51
8637;BME280;4356;49.068;8.658;2023-03-13T04:20:16;99017.66;;;16.07;38.68
8637;BME280;4356;49.068;8.658;2023-03-13T04:22:42;99020.31;;;16.14;39.30
8637;BME280;4356;49.068;8.658;2023-03-13T04:25:09;99030.47;;;16.18;38.81
8637;BME280;4356;49.068;8.658;2023-03-13T04:27:35;99010.66;;;16.18;38.93
8637;BME280;4356;49.068;8.658;2023-03-13T04:30:01;99007.13;;;16.17;38.85
8637;BME280;4356;49.068;8.658;2023-03-13T04:32:26;98999.00;;;16.17;39.36
8637;BME280;4356;49.068;8.658;2023-03-13T04:34:52;99005.47;;;16.16;39.40
8637;BME280;4356;49.068;8.658;2023-03-13T04:37:18;98998.41;;;16.15;39.85
8637;BME280;4356;49.068;8.658;2023-03-13T04:39:43;98995.56;;;16.10;40.23
8637;BME280;4356;49.068;8.658;2023-03-13T04:42:10;98994.63;;;16.16;40.39
8637;BME280;4356;49.068;8.658;2023-03-13T04:44:36;99007.94;;;16.18;40.32
8637;BME280;4356;49.068;8.658;2023-03-13T04:47:02;98981.63;;;16.07;39.75
8637;BME280;4356;49.068;8.658;2023-03-13T04:49:28;99008.16;;;16.16;39.37
8637;BME280;4356;49.068;8.658;2023-03-13T04:51:53;98976.50;;;15.99;39.42
8637;BME280;4356;49.068;8.658;2023-03-13T04:54:22;99001.72;;;16.17;39.34
8637;BME280;4356;49.068;8.658;2023-03-13T04:56:47;98970.84;;;16.00;39.30
8637;BME280;4356;49.068;8.658;2023-03-13T04:59:14;98996.28;;;16.17;39.92
8637;BME280;4356;49.068;8.658;2023-03-13T05:01:41;98974.31;;;16.07;39.70
8637;BME280;4356;49.068;8.658;2023-03-13T05:04:07;98989.19;;;16.16;39.81
8637;BME280;4356;49.068;8.658;2023-03-13T05:06:33;98973.16;;;16.15;39.44
8637;BME280;4356;49.068;8.658;2023-03-13T05:08:59;98984.16;;;16.20;39.62
8637;BME280;4356;49.068;8.658;2023-03-13T05:11:25;98974.25;;;16.14;39.91
8637;BME280;4356;49.068;8.658;2023-03-13T05:13:51;98980.84;;;16.18;39.64
8637;BME280;4356;49.068;8.658;2023-03-13T05:16:17;99000.41;;;16.20;39.78
8637;BME280;4356;49.068;8.658;2023-03-13T05:18:42;99002.91;;;16.21;41.63
8637;BME280;4356;49.068;8.658;2023-03-13T05:21:08;99007.50;;;16.21;40.84
8637;BME280;4356;49.068;8.658;2023-03-13T05:23:34;98999.81;;;16.18;40.12
8637;BME280;4356;49.068;8.658;2023-03-13T05:26:00;98965.94;;;16.09;40.26
8637;BME280;4356;49.068;8.658;2023-03-13T05:28:26;98981.06;;;16.16;40.41
8637;BME280;4356;49.068;8.658;2023-03-13T05:30:52;98973.53;;;16.18;39.89
8637;BME280;4356;49.068;8.658;2023-03-13T05:33:20;98976.25;;;16.18;41.55
8637;BME280;4356;49.068;8.658;2023-03-13T05:35:46;98978.00;;;16.13;40.44
8637;BME280;4356;49.068;8.658;2023-03-13T05:38:12;98961.81;;;16.06;40.01
8637;BME280;4356;49.068;8.658;2023-03-13T05:40:38;98970.47;;;16.15;40.26
8637;BME280;4356;49.068;8.658;2023-03-13T05:43:03;98963.41;;;16.14;40.25
8637;BME280;4356;49.068;8.658;2023-03-13T05:45:29;98973.78;;;16.17;40.04
8637;BME280;4356;49.068;8.658;2023-03-13T05:47:55;98967.53;;;16.16;40.84
8637;BME280;4356;49.068;8.658;2023-03-13T05:50:20;98969.41;;;16.16;40.58
8637;BME280;4356;49.068;8.658;2023-03-13T05:52:46;98945.34;;;16.08;40.00
8637;BME280;4356;49.068;8.658;2023-03-13T05:55:15;98978.13;;;16.18;40.27
8637;BME280;4356;49.068;8.658;2023-03-13T05:57:45;98958.03;;;16.07;40.32
8637;BME280;4356;49.068;8.658;2023-03-13T06:00:12;98962.47;;;16.20;40.35
8637;BME280;4356;49.068;8.658;2023-03-13T06:02:38;98949.13;;;16.18;40.27
8637;BME280;4356;49.068;8.658;2023-03-13T06:05:04;98945.84;;;16.16;40.42
8637;BME280;4356;49.068;8.658;2023-03-13T06:07:29;98930.03;;;16.13;40.50
8637;BME280;4356;49.068;8.658;2023-03-13T06:09:55;98939.59;;;16.16;40.94
8637;BME280;4356;49.068;8.658;2023-03-13T06:12:20;98925.75;;;16.06;40.93
8637;BME280;4356;49.068;8.658;2023-03-13T06:14:46;98946.19;;;16.20;40.43
8637;BME280;4356;49.068;8.658;2023-03-13T06:17:12;98951.41;;;16.21;40.66
8637;BME280;4356;49.068;8.658;2023-03-13T06:19:37;98951.97;;;16.23;40.61
8637;BME280;4356;49.068;8.658;2023-03-13T06:22:03;98952.34;;;16.27;40.50
8637;BME280;4356;49.068;8.658;2023-03-13T06:24:29;98943.84;;;16.23;41.48
8637;BME280;4356;49.068;8.658;2023-03-13T06:26:54;98956.97;;;16.26;41.02
8637;BME280;4356;49.068;8.658;2023-03-13T06:29:20;98969.44;;;16.27;41.06
8637;BME280;4356;49.068;8.658;2023-03-13T06:31:45;98963.78;;;16.29;40.91
8637;BME280;4356;49.068;8.658;2023-03-13T06:34:12;98963.19;;;16.27;41.44
8637;BME280;4356;49.068;8.658;2023-03-13T06:36:38;98959.44;;;16.28;41.15
8637;BME280;4356;49.068;8.658;2023-03-13T06:39:04;98970.66;;;16.31;41.41
8637;BME280;4356;49.068;8.658;2023-03-13T06:41:30;98962.53;;;16.31;41.16
8637;BME280;4356;49.068;8.658;2023-03-13T06:43:55;98951.19;;;16.23;41.15
8637;BME280;4356;49.068;8.658;2023-03-13T06:46:23;98961.31;;;16.27;41.20
8637;BME280;4356;49.068;8.658;2023-03-13T06:48:49;98980.13;;;16.40;41.38
8637;BME280;4356;49.068;8.658;2023-03-13T06:51:17;98984.47;;;16.41;41.34
8637;BME280;4356;49.068;8.658;2023-03-13T06:53:44;98974.22;;;16.43;41.44
8637;BME280;4356;49.068;8.658;2023-03-13T06:56:11;98981.09;;;16.46;41.20
8637;BME280;4356;49.068;8.658;2023-03-13T06:58:38;98960.53;;;16.38;40.84
8637;BME280;4356;49.068;8.658;2023-03-13T07:01:10;98987.34;;;16.46;41.06
8637;BME280;4356;49.068;8.658;2023-03-13T07:03:38;98978.53;;;16.51;41.60
8637;BME280;4356;49.068;8.658;2023-03-13T07:06:06;98965.81;;;16.52;41.50
8637;BME280;4356;49.068;8.658;2023-03-13T07:08:33;98956.31;;;16.42;41.83
8637;BME280;4356;49.068;8.658;2023-03-13T07:11:07;98943.34;;;16.44;41.64
8637;BME280;4356;49.068;8.658;2023-03-13T07:13:34;98964.41;;;16.61;41.81
8637;BME280;4356;49.068;8.658;2023-03-13T07:16:05;98945.44;;;16.61;41.68
8637;BME280;4356;49.068;8.658;2023-03-13T07:18:32;98929.25;;;16.54;41.50
8637;BME280;4356;49.068;8.658;2023-03-13T07:21:00;98935.78;;;16.65;41.86
8637;BME280;4356;49.068;8.658;2023-03-13T07:23:30;98929.88;;;16.68;42.33
8637;BME280;4356;49.068;8.658;2023-03-13T07:26:01;98924.69;;;16.66;42.33
8637;BME280;4356;49.068;8.658;2023-03-13T07:28:28;98938.38;;;16.71;42.42
8637;BME280;4356;49.068;8.658;2023-03-13T07:31:02;98922.09;;;16.71;42.63
8637;BME280;4356;49.068;8.658;2023-03-13T07:33:28;98896.97;;;16.64;42.49
8637;BME280;4356;49.068;8.658;2023-03-13T07:35:54;98909.13;;;16.73;42.40
8637;BME280;4356;49.068;8.658;2023-03-13T07:38:19;98892.38;;;16.65;42.45
8637;BME280;4356;49.068;8.658;2023-03-13T07:40:56;98904.06;;;16.77;42.49
8637;BME280;4356;49.068;8.658;2023-03-13T07:43:23;98896.50;;;16.79;42.54
8637;BME280;4356;49.068;8.658;2023-03-13T07:48:24;98887.19;;;16.75;42.34
8637;BME280;4356;49.068;8.658;2023-03-13T07:50:50;98892.28;;;16.83;42.47
8637;BME280;4356;49.068;8.658;2023-03-13T07:53:16;98873.97;;;16.78;42.50
8637;BME280;4356;49.068;8.658;2023-03-13T07:58:21;98855.94;;;16.72;42.67
8637;BME280;4356;49.068;8.658;2023-03-13T08:00:47;98882.72;;;16.92;42.42
8637;BME280;4356;49.068;8.658;2023-03-13T08:03:12;98895.81;;;16.95;42.43
8637;BME280;4356;49.068;8.658;2023-03-13T08:05:39;98903.47;;;16.98;42.28
8637;BME280;4356;49.068;8.658;2023-03-13T08:08:05;98906.19;;;16.98;42.49
8637;BME280;4356;49.068;8.658;2023-03-13T08:10:30;98910.31;;;17.00;42.34
8637;BME280;4356;49.068;8.658;2023-03-13T08:12:56;98928.59;;;17.05;42.65
8637;BME280;4356;49.068;8.658;2023-03-13T08:15:22;98891.78;;;16.86;42.15
8637;BME280;4356;49.068;8.658;2023-03-13T08:17:51;98912.44;;;16.98;42.47
8637;BME280;4356;49.068;8.658;2023-03-13T08:20:17;98891.31;;;16.89;42.54
8637;BME280;4356;49.068;8.658;2023-03-13T08:22:44;98915.97;;;17.10;42.71
8637;BME280;4356;49.068;8.658;2023-03-13T08:25:15;98910.44;;;17.05;42.22
8637;BME280;4356;49.068;8.658;2023-03-13T08:27:41;98925.06;;;17.16;42.65
8637;BME280;4356;49.068;8.658;2023-03-13T08:30:08;98932.16;;;17.17;42.04
8637;BME280;4356;49.068;8.658;2023-03-13T08:32:35;98930.38;;;17.22;42.24
8637;BME280;4356;49.068;8.658;2023-03-13T08:35:01;98913.59;;;17.14;42.44
8637;BME280;4356;49.068;8.658;2023-03-13T08:37:27;98926.16;;;17.26;42.55
8637;BME280;4356;49.068;8.658;2023-03-13T08:39:53;98927.53;;;17.29;42.54
8637;BME280;4356;49.068;8.658;2023-03-13T08:42:21;98921.41;;;17.22;42.66
8637;BME280;4356;49.068;8.658;2023-03-13T08:44:47;98938.16;;;17.30;42.77
8637;BME280;4356;49.068;8.658;2023-03-13T08:47:13;98932.63;;;17.25;42.37
8637;BME280;4356;49.068;8.658;2023-03-13T08:49:38;98921.41;;;17.22;42.36
8637;BME280;4356;49.068;8.658;2023-03-13T08:52:04;98936.63;;;17.34;42.34
8637;BME280;4356;49.068;8.658;2023-03-13T08:54:31;98930.84;;;17.31;42.13
8637;BME280;4356;49.068;8.658;2023-03-13T08:56:57;98937.22;;;17.36;42.00
8637;BME280;4356;49.068;8.658;2023-03-13T08:59:24;98949.38;;;17.45;41.51
8637;BME280;4356;49.068;8.658;2023-03-13T09:01:50;98944.19;;;17.44;41.79
8637;BME280;4356;49.068;8.658;2023-03-13T09:04:17;98959.56;;;17.50;41.57
8637;BME280;4356;49.068;8.658;2023-03-13T09:06:43;98956.84;;;17.50;41.94
8637;BME280;4356;49.068;8.658;2023-03-13T09:09:12;98962.84;;;17.52;41.41
8637;BME280;4356;49.068;8.658;2023-03-13T09:11:38;98954.69;;;17.52;41.47
8637;BME280;4356;49.068;8.658;2023-03-13T09:14:05;98965.91;;;17.56;41.83
8637;BME280;4356;49.068;8.658;2023-03-13T09:16:34;98968.41;;;17.57;41.84
8637;BME280;4356;49.068;8.658;2023-03-13T09:19:00;98953.75;;;17.58;42.08
8637;BME280;4356;49.068;8.658;2023-03-13T09:21:28;98942.66;;;17.60;42.13
8637;BME280;4356;49.068;8.658;2023-03-13T09:23:54;98934.16;;;17.56;42.15
8637;BME280;4356;49.068;8.658;2023-03-13T09:26:21;98915.28;;;17.50;41.91
8637;BME280;4356;49.068;8.658;2023-03-13T09:28:47;98925.66;;;17.64;41.97
8637;BME280;4356;49.068;8.658;2023-03-13T09:31:24;98942.50;;;17.78;42.27
8637;BME280;4356;49.068;8.658;2023-03-13T09:33:51;98934.69;;;17.81;41.83
8637;BME280;4356;49.068;8.658;2023-03-13T09:36:18;98936.53;;;17.92;42.08
8637;BME280;4356;49.068;8.658;2023-03-13T09:38:44;98928.03;;;18.00;41.15
8637;BME280;4356;49.068;8.658;2023-03-13T09:46:33;98922.75;;;18.10;40.60
8637;BME280;4356;49.068;8.658;2023-03-13T09:51:59;98912.97;;;18.09;42.16
8637;BME280;4356;49.068;8.658;2023-03-13T09:54:32;98911.88;;;18.10;41.00
8637;BME280;4356;49.068;8.658;2023-03-13T09:57:06;98894.31;;;18.01;40.84
8637;BME280;4356;49.068;8.658;2023-03-13T09:59:48;98898.44;;;18.04;40.85
8637;BME280;4356;49.068;8.658;2023-03-13T10:05:16;98904.66;;;18.16;41.67
8637;BME280;4356;49.068;8.658;2023-03-13T10:07:43;98905.50;;;18.16;41.15
8637;BME280;4356;49.068;8.658;2023-03-13T10:10:15;98885.44;;;18.06;41.50
8637;BME280;4356;49.068;8.658;2023-03-13T10:12:47;98892.16;;;18.15;41.51
8637;BME280;4356;49.068;8.658;2023-03-13T10:18:19;98905.56;;;18.21;40.81
8637;BME280;4356;49.068;8.658;2023-03-13T10:21:00;98884.31;;;18.18;41.80
8637;BME280;4356;49.068;8.658;2023-03-13T10:26:26;98887.13;;;18.23;40.50
8637;BME280;4356;49.068;8.658;2023-03-13T10:28:54;98885.97;;;18.19;40.26
8637;BME280;4356;49.068;8.658;2023-03-13T10:31:34;98882.78;;;18.22;41.35
8637;BME280;4356;49.068;8.658;2023-03-13T10:34:08;98876.25;;;18.23;41.17
8637;BME280;4356;49.068;8.658;2023-03-13T10:36:46;98888.88;;;18.29;40.79
8637;BME280;4356;49.068;8.658;2023-03-13T10:39:17;98886.16;;;18.29;40.53
8637;BME280;4356;49.068;8.658;2023-03-13T10:41:42;98873.94;;;18.32;40.87
8637;BME280;4356;49.068;8.658;2023-03-13T10:44:20;98878.09;;;18.34;41.64
8637;BME280;4356;49.068;8.658;2023-03-13T10:46:48;98866.13;;;18.35;40.74
8637;BME280;4356;49.068;8.658;2023-03-13T10:49:19;98855.81;;;18.37;41.00
8637;BME280;4356;49.068;8.658;2023-03-13T10:51:51;98843.06;;;18.38;41.67
8637;BME280;4356;49.068;8.658;2023-03-13T10:56:48;98832.69;;;18.35;40.99
8637;BME280;4356;49.068;8.658;2023-03-13T10:59:24;98830.88;;;18.40;41.78
8637;BME280;4356;49.068;8.658;2023-03-13T11:01:53;98828.25;;;18.45;41.80
8637;BME280;4356;49.068;8.658;2023-03-13T11:04:32;98822.81;;;18.45;40.57
8637;BME280;4356;49.068;8.658;2023-03-13T11:07:29;98814.72;;;18.51;40.85
8637;BME280;4356;49.068;8.658;2023-03-13T11:10:17;98811.19;;;18.50;41.14
8637;BME280;4356;49.068;8.658;2023-03-13T11:12:47;98801.47;;;18.54;41.24
8637;BME280;4356;49.068;8.658;2023-03-13T11:15:50;98795.81;;;18.61;42.10
8637;BME280;4356;49.068;8.658;2023-03-13T11:18:34;98789.34;;;18.62;41.59
8637;BME280;4356;49.068;8.658;2023-03-13T11:21:03;98789.41;;;18.67;40.26
8637;BME280;4356;49.068;8.658;2023-03-13T11:23:43;98776.38;;;18.69;39.75
8637;BME280;4356;49.068;8.658;2023-03-13T11:29:19;98751.88;;;18.69;40.70
8637;BME280;4356;49.068;8.658;2023-03-13T11:31:45;98765.06;;;18.77;40.71
8637;BME280;4356;49.068;8.658;2023-03-13T11:34:27;98754.50;;;18.80;40.05
8637;BME280;4356;49.068;8.658;2023-03-13T11:37:00;98715.88;;;18.62;40.47
8637;BME280;4356;49.068;8.658;2023-03-13T11:48:17;98723.84;;;18.90;40.48
8637;BME280;4356;49.068;8.658;2023-03-13T11:51:01;98713.53;;;18.92;40.27
8637;BME280;4356;49.068;8.658;2023-03-13T11:54:03;98710.56;;;18.93;41.04
8637;BME280;4356;49.068;8.658;2023-03-13T11:56:36;98699.19;;;18.96;39.81
8637;BME280;4356;49.068;8.658;2023-03-13T11:59:23;98698.94;;;18.98;39.43
8637;BME280;4356;49.068;8.658;2023-03-13T12:04:48;98667.50;;;19.12;41.68
8637;BME280;4356;49.068;8.658;2023-03-13T12:07:35;98668.69;;;19.21;41.21
8637;BME280;4356;49.068;8.658;2023-03-13T12:10:05;98662.97;;;19.22;41.04
8637;BME280;4356;49.068;8.658;2023-03-13T12:12:39;98657.03;;;19.25;40.86
8637;BME280;4356;49.068;8.658;2023-03-13T12:26:09;98621.03;;;19.45;40.75
8637;BME280;4356;49.068;8.658;2023-03-13T12:28:50;98620.25;;;19.49;41.11
8637;BME280;4356;49.068;8.658;2023-03-13T12:34:15;98602.56;;;19.52;40.80
8637;BME280;4356;49.068;8.658;2023-03-13T12:36:58;98596.09;;;19.58;40.41
8637;BME280;4356;49.068;8.658;2023-03-13T12:39:57;98591.75;;;19.62;40.20
8637;BME280;4356;49.068;8.658;2023-03-13T12:42:46;98592.31;;;19.64;40.35
8637;BME280;4356;49.068;8.658;2023-03-13T12:45:18;98575.94;;;19.64;39.98
8637;BME280;4356;49.068;8.658;2023-03-13T12:57:03;98562.97;;;19.76;39.38
8637;BME280;4356;49.068;8.658;2023-03-13T12:59:45;98538.72;;;19.75;39.25
8637;BME280;4356;49.068;8.658;2023-03-13T13:02:23;98529.72;;;19.79;39.61
8637;BME280;4356;49.068;8.658;2023-03-13T13:04:51;98525.91;;;19.80;39.24
8637;BME280;4356;49.068;8.658;2023-03-13T13:07:39;98507.09;;;19.79;38.88
8637;BME280;4356;49.068;8.658;2023-03-13T13:12:36;98493.72;;;19.77;39.21
8637;BME280;4356;49.068;8.658;2023-03-13T13:15:44;98495.44;;;19.88;40.19
8637;BME280;4356;49.068;8.658;2023-03-13T13:18:13;98489.72;;;19.90;39.52
8637;BME280;4356;49.068;8.658;2023-03-13T13:23:26;98476.09;;;19.95;39.70
8637;BME280;4356;49.068;8.658;2023-03-13T13:25:54;98478.81;;;19.95;40.09
8637;BME280;4356;49.068;8.658;2023-03-13T13:28:31;98468.75;;;19.95;40.03
8637;BME280;4356;49.068;8.658;2023-03-13T13:30:59;98457.56;;;19.92;39.36
8637;BME280;4356;49.068;8.658;2023-03-13T13:38:46;98451.63;;;20.10;38.82
8637;BME280;4356;49.068;8.658;2023-03-13T13:43:46;98446.78;;;20.17;38.82
8637;BME280;4356;49.068;8.658;2023-03-13T13:51:37;98422.28;;;20.27;38.11
8637;BME280;4356;49.068;8.658;2023-03-13T13:56:59;98405.91;;;20.32;38.11
8637;BME280;4356;49.068;8.658;2023-03-13T14:04:39;98382.47;;;20.46;38.57
8637;BME280;4356;49.068;8.658;2023-03-13T14:07:13;98364.22;;;20.41;38.69
8637;BME280;4356;49.068;8.658;2023-03-13T14:09:57;98376.22;;;20.56;38.91
8637;BME280;4356;49.068;8.658;2023-03-13T14:12:30;98345.66;;;20.43;39.40
8637;BME280;4356;49.068;8.658;2023-03-13T14:15:08;98365.56;;;20.64;39.11
8637;BME280;4356;49.068;8.658;2023-03-13T14:17:57;98370.50;;;20.72;38.42
8637;BME280;4356;49.068;8.658;2023-03-13T14:23:05;98345.66;;;20.79;38.94
8637;BME280;4356;49.068;8.658;2023-03-13T14:25:48;98344.28;;;20.86;39.06
8637;BME280;4356;49.068;8.658;2023-03-13T14:30:44;98327.59;;;20.93;38.17
8637;BME280;4356;49.068;8.658;2023-03-13T14:33:11;98315.59;;;20.99;38.39
8637;BME280;4356;49.068;8.658;2023-03-13T14:35:38;98306.63;;;21.03;38.06
8637;BME280;4356;49.068;8.658;2023-03-13T14:38:04;98293.47;;;21.05;38.10
8637;BME280;4356;49.068;8.658;2023-03-13T14:40:32;98292.91;;;21.13;37.56
8637;BME280;4356;49.068;8.658;2023-03-13T14:43:02;98286.88;;;21.16;37.75
8637;BME280;4356;49.068;8.658;2023-03-13T14:45:30;98275.16;;;21.21;37.14
8637;BME280;4356;49.068;8.658;2023-03-13T14:50:46;98251.34;;;21.26;37.38
8637;BME280;4356;49.068;8.658;2023-03-13T14:53:16;98253.81;;;21.28;37.25
8637;BME280;4356;49.068;8.658;2023-03-13T14:55:42;98234.38;;;21.34;37.44
8637;BME280;4356;49.068;8.658;2023-03-13T14:58:24;98225.34;;;21.39;37.29
8637;BME280;4356;49.068;8.658;2023-03-13T15:00:52;98224.53;;;21.38;36.73
8637;BME280;4356;49.068;8.658;2023-03-13T15:03:26;98222.84;;;21.47;37.14
8637;BME280;4356;49.068;8.658;2023-03-13T15:08:41;98203.41;;;21.54;37.22
8637;BME280;4356;49.068;8.658;2023-03-13T15:11:21;98199.81;;;21.59;36.95
8637;BME280;4356;49.068;8.658;2023-03-13T15:13:49;98195.72;;;21.61;36.98
8637;BME280;4356;49.068;8.658;2023-03-13T15:16:17;98191.88;;;21.62;36.89
8637;BME280;4356;49.068;8.658;2023-03-13T15:18:45;98176.78;;;21.70;36.63
8637;BME280;4356;49.068;8.658;2023-03-13T15:23:47;98175.38;;;21.77;36.69
8637;BME280;4356;49.068;8.658;2023-03-13T15:26:14;98173.22;;;21.79;36.72